A80 TRACON Summary / KATL TAF
ATL TRACON Summary:
Isolated showers in the TRACON will diminish by 01-02z. Expect VFR conditions under FEW-SCT060-110 clouds overnight. Surface winds will be northeast to east at 3-7kts. Flight Hazards in the TRACON airspace outside convection: none expected.

Updated:9/4/2015 8:14 PM
ATL Terminal Aerodrome Forecast:

FTUS31 KATL 050539
KATL 050536Z 0506/0612 06006KT P6SM FEW250
     FM051400 08006KT P6SM SCT050
     FM051700 08006KT P6SM BKN050 PROB30 0518/0524 5SM -TSRA
      BKN045CB
     FM060000 10006KT P6SM SCT070
     FM060500 09005KT P6SM BKN070
ATL TRACON Area Remark:
ISOLATED TS POSSIBLE ALL QUADS until 02z.
Convective Gate Forecast / Collaborative Convective Forecast Product / Vertical Wind Profile
Convective Gate Forecast
AIRMETs & SIGMETS/ Southeast Radar loop / Satellite Image (click on image to enlarge)

Southeast Radar Loop

 



USA.gov is the U.S. government's official web portal to all federal, state and local government web resources and services.